Denver City, Texas
Current Conditions -  °F | °C
As of 11:15 PM on Tuesday 25 Nov 2014 (Local Time) from KGNC Reporting Station
Clear Clear  
Wind Chill: 33°   Ceiling: Unl
Heat Index: 40°   Visibility: 10mi
Dew Point: 13°   Wind: 10mph
Humidity: 33%   Direction: 250°WSW
Pressure: 30.13"   Gusts: NA
Location:  32.96°N, 102.82°W
Report Text: KGNC 260515Z AUTO 25009KT 10SM CLR 04/M11 A3013 RMK AO2 T00421108
Loading
Personal Weather Stations






























Interactive Weather Map New forecast layout! Learn more

10-Day Weather Forecast

Advertisements
Track Severe Weather on mobile